createdAt,value
2023-05-25T00:02:15.496Z,3.15
2023-05-25T00:04:43.595Z,3.25
2023-05-25T00:07:12.294Z,3.20
2023-05-25T00:09:44.497Z,3.83
2023-05-25T00:12:12.589Z,3.50
2023-05-25T00:14:40.526Z,3.65
2023-05-25T00:17:10.030Z,3.80
2023-05-25T00:19:38.371Z,4.15
2023-05-25T00:22:06.880Z,4.00
2023-05-25T00:24:34.838Z,3.78
2023-05-25T00:27:04.741Z,3.72
2023-05-25T00:29:32.718Z,4.47
2023-05-25T00:32:00.966Z,4.20
2023-05-25T00:34:28.956Z,3.88
2023-05-25T00:36:56.966Z,3.92
2023-05-25T00:39:24.936Z,4.13
2023-05-25T00:41:53.115Z,3.90
2023-05-25T00:44:22.470Z,4.40
2023-05-25T00:46:53.144Z,4.40
2023-05-25T00:49:23.631Z,4.38
2023-05-25T00:51:59.501Z,4.32
2023-05-25T00:54:27.825Z,4.13
2023-05-25T00:56:58.619Z,4.13
2023-05-25T00:59:31.092Z,4.13
2023-05-25T01:02:04.793Z,3.88
2023-05-25T01:04:35.169Z,4.43
2023-05-25T01:07:06.237Z,4.28
2023-05-25T01:09:36.496Z,3.88
2023-05-25T01:12:05.082Z,3.60
2023-05-25T01:14:35.948Z,3.80
2023-05-25T01:17:04.368Z,3.70
2023-05-25T01:19:33.851Z,3.75
2023-05-25T01:22:06.562Z,4.13
2023-05-25T01:24:41.070Z,3.85
2023-05-25T01:27:14.063Z,3.47
2023-05-25T01:29:45.336Z,3.97
2023-05-25T01:32:14.777Z,3.85
2023-05-25T01:34:45.783Z,4.10
2023-05-25T01:37:17.469Z,4.20
2023-05-25T01:39:45.623Z,3.92
2023-05-25T01:42:13.716Z,3.78
2023-05-25T01:44:42.093Z,3.80
2023-05-25T01:47:17.938Z,4.40
2023-05-25T01:49:57.977Z,4.30
2023-05-25T01:52:31.792Z,4.15
2023-05-25T01:55:06.467Z,4.47
2023-05-25T01:57:37.085Z,4.57
2023-05-25T02:00:06.127Z,3.80
2023-05-25T02:02:34.969Z,4.35
2023-05-25T02:05:03.336Z,3.92
2023-05-25T02:07:32.738Z,4.30
2023-05-25T02:10:01.008Z,4.03
2023-05-25T02:12:28.886Z,4.28
2023-05-25T02:14:56.841Z,3.83
2023-05-25T02:17:28.087Z,3.95
2023-05-25T02:19:56.266Z,3.53
2023-05-25T02:22:24.531Z,3.85
2023-05-25T02:24:53.925Z,4.00
2023-05-25T02:27:30.270Z,3.88
2023-05-25T02:29:58.275Z,3.78
2023-05-25T02:32:26.258Z,4.30
2023-05-25T02:34:54.155Z,4.28
2023-05-25T02:37:22.431Z,4.80
2023-05-25T02:39:50.491Z,4.57
2023-05-25T02:42:20.299Z,4.82
2023-05-25T02:44:49.265Z,4.60
2023-05-25T02:47:18.150Z,4.53
2023-05-25T02:49:46.454Z,4.50
2023-05-25T02:52:14.514Z,4.18
2023-05-25T02:54:42.694Z,4.22
2023-05-25T02:57:10.809Z,4.65
2023-05-25T02:59:40.207Z,4.60
2023-05-25T03:02:08.142Z,4.85
2023-05-25T03:04:37.677Z,4.80
2023-05-25T03:07:05.999Z,5.28
2023-05-25T03:09:33.964Z,4.40
2023-05-25T03:12:02.549Z,4.72
2023-05-25T03:14:30.510Z,4.40
2023-05-25T03:17:00.004Z,4.78
2023-05-25T03:19:28.022Z,5.00
2023-05-25T03:21:56.007Z,5.72
2023-05-25T03:24:23.990Z,5.40
2023-05-25T03:26:52.095Z,5.32
2023-05-25T03:29:20.124Z,5.35
2023-05-25T03:31:48.177Z,4.70
2023-05-25T03:34:17.689Z,5.00
2023-05-25T03:36:47.678Z,5.03
2023-05-25T03:39:15.649Z,4.43
2023-05-25T03:41:44.306Z,4.60
2023-05-25T03:44:12.252Z,5.43
2023-05-25T03:46:40.207Z,4.95
2023-05-25T03:49:09.074Z,5.35
2023-05-25T03:51:38.424Z,5.18
2023-05-25T03:54:06.565Z,5.10
2023-05-25T03:56:34.507Z,4.47
2023-05-25T03:59:02.447Z,5.10
2023-05-25T04:01:30.447Z,5.40
2023-05-25T04:03:58.554Z,4.63
2023-05-25T04:06:30.912Z,5.50
2023-05-25T04:09:01.392Z,5.25
2023-05-25T04:11:29.672Z,5.32
2023-05-25T04:13:57.745Z,5.25
2023-05-25T04:16:26.208Z,4.75
2023-05-25T04:18:54.155Z,5.05
2023-05-25T04:21:22.080Z,5.38
2023-05-25T04:23:49.994Z,5.05
2023-05-25T04:26:19.693Z,5.10
2023-05-25T04:28:48.304Z,5.53
2023-05-25T04:31:17.015Z,4.95
2023-05-25T04:33:45.001Z,5.47
2023-05-25T04:36:14.209Z,5.60
2023-05-25T04:38:48.025Z,5.60
2023-05-25T04:41:16.205Z,5.32
2023-05-25T04:44:03.560Z,5.88
2023-05-25T04:46:37.429Z,6.28
2023-05-25T04:49:06.308Z,5.40
2023-05-25T04:51:34.233Z,6.18
2023-05-25T04:54:02.182Z,5.85
2023-05-25T04:56:30.254Z,5.68
2023-05-25T04:58:59.536Z,6.22
2023-05-25T05:01:29.452Z,5.80
2023-05-25T05:03:57.608Z,5.90
2023-05-25T05:06:25.936Z,5.70
2023-05-25T05:08:53.912Z,6.05
2023-05-25T05:11:22.120Z,6.25
2023-05-25T05:13:50.254Z,5.88
2023-05-25T05:16:19.619Z,6.05
2023-05-25T05:18:47.603Z,5.78
2023-05-25T05:21:15.649Z,6.00
2023-05-25T05:23:44.056Z,6.20
2023-05-25T05:26:15.241Z,6.50
2023-05-25T05:28:43.841Z,7.07
2023-05-25T05:31:12.470Z,6.32
2023-05-25T05:33:41.896Z,6.70
2023-05-25T05:36:09.963Z,6.70
2023-05-25T05:38:39.953Z,6.70
2023-05-25T05:41:13.444Z,5.93
2023-05-25T05:43:42.845Z,6.68
2023-05-25T05:46:11.587Z,6.32
2023-05-25T05:48:41.623Z,5.78
2023-05-25T05:51:09.560Z,5.80
2023-05-25T05:53:37.489Z,6.45
2023-05-25T05:56:07.581Z,8.68
2023-05-25T05:58:35.873Z,6.85
2023-05-25T06:01:04.672Z,6.05
2023-05-25T06:03:32.729Z,6.45
2023-05-25T06:06:02.344Z,6.97
2023-05-25T06:08:30.356Z,8.55
2023-05-25T06:10:58.271Z,6.68
2023-05-25T06:13:26.194Z,5.88
2023-05-25T06:15:54.226Z,5.43
2023-05-25T06:18:22.167Z,5.50
2023-05-25T06:20:50.450Z,5.82
2023-05-25T06:23:19.933Z,5.53
2023-05-25T06:25:47.979Z,5.68
2023-05-25T06:28:16.462Z,5.53
2023-05-25T06:30:44.517Z,7.03
2023-05-25T06:33:16.058Z,6.07
2023-05-25T06:35:44.258Z,5.30
2023-05-25T06:38:12.740Z,4.90
2023-05-25T06:40:42.412Z,5.32
2023-05-25T06:43:10.433Z,4.88
2023-05-25T06:45:38.383Z,5.25
2023-05-25T06:48:06.615Z,5.50
2023-05-25T06:50:34.613Z,5.05
2023-05-25T06:53:02.617Z,4.70
2023-05-25T06:55:30.720Z,4.13
2023-05-25T06:57:59.942Z,3.75
2023-05-25T07:00:27.910Z,4.10
2023-05-25T07:02:55.937Z,3.78
2023-05-25T07:05:24.342Z,3.80
2023-05-25T07:07:52.477Z,3.90
2023-05-25T07:10:20.595Z,3.90
2023-05-25T07:12:48.512Z,4.28
2023-05-25T07:15:17.973Z,3.88
2023-05-25T07:17:46.301Z,3.63
2023-05-25T07:20:14.738Z,3.60
2023-05-25T07:22:43.607Z,3.35
2023-05-25T07:25:11.594Z,3.50
2023-05-25T07:27:40.129Z,3.63
2023-05-25T07:30:09.528Z,3.78
2023-05-25T07:32:39.205Z,3.58
2023-05-25T07:35:07.977Z,3.90
2023-05-25T07:37:36.392Z,3.78
2023-05-25T07:40:04.539Z,3.60
2023-05-25T07:42:34.405Z,3.17
2023-05-25T07:45:02.432Z,2.55
2023-05-25T07:47:30.514Z,3.15
2023-05-25T07:49:59.804Z,3.10
2023-05-25T07:52:27.819Z,2.97
2023-05-25T07:54:55.915Z,2.88
2023-05-25T07:57:23.861Z,2.70
2023-05-25T07:59:52.095Z,2.35
2023-05-25T08:02:20.152Z,2.20
2023-05-25T08:04:48.281Z,2.40
2023-05-25T08:07:20.913Z,3.35
2023-05-25T08:09:49.026Z,2.42
2023-05-25T08:12:34.285Z,2.10
2023-05-25T08:15:06.250Z,2.83
2023-05-25T08:17:34.359Z,3.95
2023-05-25T08:20:02.754Z,3.60
2023-05-25T08:22:32.085Z,4.10
2023-05-25T08:25:00.023Z,4.07
2023-05-25T08:27:28.028Z,3.90
2023-05-25T08:29:56.068Z,4.10
2023-05-25T08:32:24.066Z,3.05
2023-05-25T08:34:59.991Z,2.88
2023-05-25T08:37:27.934Z,2.78
2023-05-25T08:39:57.245Z,2.70
2023-05-25T08:42:25.160Z,3.15
2023-05-25T08:44:53.156Z,4.18
2023-05-25T08:47:23.602Z,3.20
2023-05-25T08:49:52.833Z,3.00
2023-05-25T08:52:24.268Z,3.10
2023-05-25T08:54:54.870Z,3.47
2023-05-25T08:57:30.650Z,2.95
2023-05-25T09:00:04.654Z,2.50
2023-05-25T09:02:37.334Z,2.70
2023-05-25T09:05:06.568Z,2.60
2023-05-25T09:07:35.225Z,4.20
2023-05-25T09:10:03.854Z,4.57
2023-05-25T09:12:33.578Z,3.05
2023-05-25T09:15:01.528Z,2.72
2023-05-25T09:17:29.581Z,2.38
2023-05-25T09:19:57.699Z,4.10
2023-05-25T09:22:25.704Z,2.30
2023-05-25T09:24:55.161Z,2.53
2023-05-25T09:27:24.729Z,2.53
2023-05-25T09:29:54.169Z,2.65
2023-05-25T09:32:22.084Z,2.88
2023-05-25T09:34:50.086Z,2.55
2023-05-25T09:37:20.083Z,2.50
2023-05-25T09:39:48.861Z,2.53
2023-05-25T09:42:17.979Z,2.72
2023-05-25T09:44:46.077Z,2.63
2023-05-25T09:47:17.107Z,2.35
2023-05-25T09:49:47.621Z,2.40
2023-05-25T09:52:15.867Z,2.80
2023-05-25T09:54:45.842Z,2.53
2023-05-25T09:57:13.791Z,3.05
2023-05-25T09:59:43.231Z,2.90
2023-05-25T10:02:11.237Z,3.17
2023-05-25T10:04:41.492Z,2.88
2023-05-25T10:07:09.823Z,3.67
2023-05-25T10:09:41.708Z,3.25
2023-05-25T10:12:09.889Z,2.83
2023-05-25T10:14:39.386Z,3.17
2023-05-25T10:17:09.687Z,3.28
2023-05-25T10:19:46.976Z,3.03
2023-05-25T10:22:22.094Z,2.90
2023-05-25T10:24:57.329Z,3.33
2023-05-25T10:27:28.021Z,3.45
2023-05-25T10:29:58.028Z,3.28
2023-05-25T10:32:33.714Z,3.65
2023-05-25T10:35:04.415Z,3.20
2023-05-25T10:37:33.832Z,3.40
2023-05-25T10:40:02.854Z,4.10
2023-05-25T10:42:32.359Z,3.40
2023-05-25T10:45:01.510Z,3.47
2023-05-25T10:47:29.801Z,2.75
2023-05-25T10:50:01.928Z,3.00
2023-05-25T10:52:32.279Z,2.83
2023-05-25T10:55:04.401Z,2.20
2023-05-25T10:57:32.764Z,2.15
2023-05-25T11:00:06.808Z,2.03
2023-05-25T11:02:50.355Z,2.40
2023-05-25T11:05:36.840Z,2.22
2023-05-25T11:08:08.717Z,1.83
2023-05-25T11:10:44.465Z,1.80
2023-05-25T11:13:40.901Z,1.70
2023-05-25T11:16:20.133Z,2.03
2023-05-25T11:18:52.690Z,2.25
2023-05-25T11:21:45.633Z,2.58
2023-05-25T11:24:17.024Z,2.85
2023-05-25T11:26:56.379Z,2.50
2023-05-25T11:29:25.932Z,2.40
2023-05-25T11:31:55.550Z,2.40
2023-05-25T11:34:25.974Z,2.70
2023-05-25T11:37:01.688Z,2.40
2023-05-25T11:39:32.213Z,2.30
2023-05-25T11:42:04.994Z,3.40
2023-05-25T11:44:34.562Z,2.50
2023-05-25T11:47:06.119Z,2.65
2023-05-25T11:49:34.193Z,2.65
2023-05-25T11:52:07.376Z,2.70
2023-05-25T11:54:37.175Z,2.13
2023-05-25T11:57:05.600Z,3.05
2023-05-25T11:59:34.093Z,2.58
2023-05-25T12:02:03.932Z,1.98
2023-05-25T12:04:33.160Z,1.80
2023-05-25T12:07:05.242Z,1.80
2023-05-25T12:09:33.761Z,2.72
2023-05-25T12:12:05.183Z,2.58
2023-05-25T12:14:36.046Z,2.38
2023-05-25T12:17:04.249Z,2.10
2023-05-25T12:19:32.876Z,2.50
2023-05-25T12:22:01.033Z,2.58
2023-05-25T12:24:29.026Z,2.30
2023-05-25T12:26:57.845Z,2.10
2023-05-25T12:29:27.301Z,2.15
2023-05-25T12:32:03.249Z,2.28
2023-05-25T12:34:31.605Z,2.15
2023-05-25T12:36:59.747Z,1.98
2023-05-25T12:39:39.053Z,1.73
2023-05-25T12:42:13.372Z,1.63
2023-05-25T12:44:43.019Z,1.70
2023-05-25T12:47:12.344Z,1.67
2023-05-25T12:49:41.616Z,2.03
2023-05-25T12:52:11.333Z,1.63
2023-05-25T12:54:44.540Z,1.88
2023-05-25T12:57:17.061Z,1.50
2023-05-25T12:59:47.917Z,1.75
2023-05-25T13:02:16.174Z,1.88
2023-05-25T13:04:44.693Z,1.40
2023-05-25T13:07:12.848Z,1.58
2023-05-25T13:09:40.826Z,1.40
2023-05-25T13:12:09.503Z,1.50
2023-05-25T13:14:37.535Z,1.30
2023-05-25T13:17:07.045Z,1.33
2023-05-25T13:19:35.216Z,1.30
2023-05-25T13:22:03.236Z,1.30
2023-05-25T13:24:31.152Z,1.20
2023-05-25T13:26:59.192Z,1.35
2023-05-25T13:29:27.124Z,1.30
2023-05-25T13:31:55.137Z,1.13
2023-05-25T13:34:24.485Z,1.10
2023-05-25T13:36:52.451Z,1.35
2023-05-25T13:39:22.050Z,1.23
2023-05-25T13:41:49.989Z,1.30
2023-05-25T13:44:18.037Z,1.15
2023-05-25T13:46:46.852Z,1.17
2023-05-25T13:49:16.373Z,1.42
2023-05-25T13:51:46.001Z,1.05
2023-05-25T13:54:14.070Z,1.55
2023-05-25T13:56:42.951Z,1.30
2023-05-25T13:59:11.275Z,1.17
2023-05-25T14:01:39.369Z,1.23
2023-05-25T14:04:07.606Z,1.25
2023-05-25T14:06:39.266Z,1.30
2023-05-25T14:09:09.953Z,1.40
2023-05-25T14:11:38.135Z,1.17
2023-05-25T14:14:13.742Z,1.20
2023-05-25T14:16:44.656Z,1.17
2023-05-25T14:19:12.701Z,1.20
2023-05-25T14:21:40.709Z,1.58
2023-05-25T14:24:10.836Z,1.40
2023-05-25T14:26:41.605Z,1.50
2023-05-25T14:29:11.007Z,1.40
2023-05-25T14:31:40.298Z,1.65
2023-05-25T14:34:08.269Z,1.70
2023-05-25T14:36:36.521Z,2.00
2023-05-25T14:39:04.685Z,1.67
2023-05-25T14:41:34.007Z,1.50
2023-05-25T14:44:01.926Z,1.52
2023-05-25T14:46:29.909Z,1.20
2023-05-25T14:48:57.818Z,1.45
2023-05-25T14:51:26.314Z,1.30
2023-05-25T14:53:54.609Z,1.40
2023-05-25T14:56:23.733Z,1.35
2023-05-25T14:58:55.153Z,1.40
2023-05-25T15:01:25.195Z,2.15
2023-05-25T15:03:53.584Z,1.50
2023-05-25T15:06:21.669Z,1.35
2023-05-25T15:08:49.596Z,1.27
2023-05-25T15:11:18.046Z,1.65
2023-05-25T15:13:46.025Z,1.35
2023-05-25T15:16:16.585Z,1.40
2023-05-25T15:18:44.583Z,1.70
2023-05-25T15:21:12.684Z,1.52
2023-05-25T15:23:41.380Z,1.55
2023-05-25T15:26:11.511Z,2.10
2023-05-25T15:28:39.602Z,1.15
2023-05-25T15:31:07.540Z,1.70
2023-05-25T15:33:48.502Z,1.55
2023-05-25T15:36:20.159Z,1.55
2023-05-25T15:38:49.361Z,1.80
2023-05-25T15:41:18.208Z,3.95
2023-05-25T15:43:52.722Z,1.88
2023-05-25T15:46:20.838Z,2.10
2023-05-25T15:48:50.083Z,1.67
2023-05-25T15:51:18.173Z,1.80
2023-05-25T15:53:46.460Z,1.50
2023-05-25T15:56:14.545Z,1.98
2023-05-25T15:58:42.510Z,1.85
2023-05-25T16:01:12.420Z,1.80
2023-05-25T16:03:43.135Z,2.20
2023-05-25T16:06:12.612Z,2.22
2023-05-25T16:08:40.664Z,2.05
2023-05-25T16:11:08.811Z,2.13
2023-05-25T16:13:36.808Z,2.22
2023-05-25T16:16:04.927Z,2.50
2023-05-25T16:18:33.215Z,2.75
2023-05-25T16:21:01.388Z,2.38
2023-05-25T16:23:31.102Z,2.40
2023-05-25T16:25:59.023Z,2.40
2023-05-25T16:28:27.027Z,2.60
2023-05-25T16:30:55.299Z,2.53
2023-05-25T16:33:23.415Z,2.42
2023-05-25T16:35:53.686Z,2.63
2023-05-25T16:38:21.707Z,2.15
2023-05-25T16:40:51.099Z,2.45
2023-05-25T16:43:19.402Z,2.20
2023-05-25T16:45:49.087Z,2.67
2023-05-25T16:48:17.130Z,2.40
2023-05-25T16:50:48.404Z,2.50
2023-05-25T16:53:16.584Z,2.50
2023-05-25T16:55:44.816Z,2.42
2023-05-25T16:58:14.745Z,1.92
2023-05-25T17:00:43.170Z,2.13
2023-05-25T17:03:11.502Z,2.40
2023-05-25T17:05:39.542Z,2.22
2023-05-25T17:08:07.624Z,2.90
2023-05-25T17:10:35.857Z,2.90
2023-05-25T17:13:03.769Z,2.33
2023-05-25T17:15:33.373Z,2.28
2023-05-25T17:18:01.486Z,2.42
2023-05-25T17:20:29.800Z,2.53
2023-05-25T17:22:59.458Z,2.33
2023-05-25T17:25:28.315Z,2.58
2023-05-25T17:27:56.366Z,2.45
2023-05-25T17:30:24.388Z,2.40
2023-05-25T17:32:54.606Z,2.67
2023-05-25T17:35:22.772Z,2.28
2023-05-25T17:37:50.866Z,2.50
2023-05-25T17:40:19.017Z,2.42
2023-05-25T17:42:46.977Z,2.40
2023-05-25T17:45:15.240Z,2.25
2023-05-25T17:47:43.459Z,2.00
2023-05-25T17:50:13.068Z,2.75
2023-05-25T17:52:42.603Z,2.25
2023-05-25T17:55:11.096Z,2.28
2023-05-25T17:57:39.152Z,2.67
2023-05-25T18:00:08.601Z,2.35
2023-05-25T18:02:37.319Z,2.13
2023-05-25T18:05:05.777Z,1.80
2023-05-25T18:07:35.702Z,2.17
2023-05-25T18:10:06.548Z,2.17
2023-05-25T18:12:34.874Z,2.20
2023-05-25T18:15:02.835Z,2.05
2023-05-25T18:17:31.276Z,2.25
2023-05-25T18:19:59.610Z,2.08
2023-05-25T18:22:27.816Z,2.10
2023-05-25T18:24:57.499Z,1.95
2023-05-25T18:27:26.030Z,2.00
2023-05-25T18:29:54.280Z,1.67
2023-05-25T18:32:24.639Z,1.75
2023-05-25T18:34:52.968Z,1.98
2023-05-25T18:37:26.151Z,2.17
2023-05-25T18:39:54.196Z,2.08
2023-05-25T18:42:23.561Z,2.10
2023-05-25T18:44:51.505Z,2.03
2023-05-25T18:47:19.667Z,1.98
2023-05-25T18:49:47.606Z,1.92
2023-05-25T18:52:15.775Z,2.13
2023-05-25T18:54:43.802Z,2.55
2023-05-25T18:57:16.377Z,4.07
2023-05-25T18:59:45.685Z,2.22
2023-05-25T19:02:13.716Z,2.58
2023-05-25T19:04:41.819Z,2.55
2023-05-25T19:07:09.712Z,2.30
2023-05-25T19:09:37.704Z,2.05
2023-05-25T19:12:07.436Z,2.08
2023-05-25T19:14:35.734Z,2.30
2023-05-25T19:17:05.345Z,2.70
2023-05-25T19:19:33.587Z,2.13
2023-05-25T19:22:01.586Z,2.30
2023-05-25T19:24:29.540Z,2.15
2023-05-25T19:26:57.693Z,2.42
2023-05-25T19:29:25.676Z,2.75
2023-05-25T19:31:53.676Z,2.90
2023-05-25T19:34:22.963Z,2.50
2023-05-25T19:36:59.653Z,2.80
2023-05-25T19:39:30.547Z,2.60
2023-05-25T19:41:58.701Z,2.58
2023-05-25T19:44:26.738Z,2.80
2023-05-25T19:46:54.686Z,2.60
2023-05-25T19:49:24.172Z,3.03
2023-05-25T19:51:52.400Z,2.58
2023-05-25T19:54:20.383Z,2.88
2023-05-25T19:56:48.297Z,2.47
2023-05-25T19:59:16.282Z,2.60
2023-05-25T20:01:44.971Z,3.35
2023-05-25T20:04:13.029Z,2.28
2023-05-25T20:06:42.367Z,2.53
2023-05-25T20:09:12.563Z,2.85
2023-05-25T20:11:40.664Z,3.20
2023-05-25T20:14:09.129Z,2.90
2023-05-25T20:16:37.153Z,2.70
2023-05-25T20:19:07.579Z,2.67
2023-05-25T20:21:36.578Z,2.58
2023-05-25T20:24:06.021Z,2.53
2023-05-25T20:26:34.095Z,2.28
2023-05-25T20:29:02.426Z,2.50
2023-05-25T20:31:30.429Z,2.85
2023-05-25T20:33:58.310Z,2.95
2023-05-25T20:36:26.183Z,3.00
2023-05-25T20:38:57.122Z,2.75
2023-05-25T20:41:26.696Z,2.53
2023-05-25T20:43:54.606Z,3.00
2023-05-25T20:46:22.617Z,2.90
2023-05-25T20:48:51.054Z,3.03
2023-05-25T20:51:19.009Z,3.05
2023-05-25T20:53:46.922Z,3.10
2023-05-25T20:56:15.012Z,3.47
2023-05-25T20:58:44.524Z,3.20
2023-05-25T21:01:12.523Z,3.38
2023-05-25T21:03:40.777Z,3.17
2023-05-25T21:06:08.965Z,3.50
2023-05-25T21:08:36.956Z,3.20
2023-05-25T21:11:04.958Z,3.20
2023-05-25T21:13:32.826Z,2.95
2023-05-25T21:16:02.169Z,3.30
2023-05-25T21:18:30.096Z,3.10
2023-05-25T21:20:58.025Z,3.28
2023-05-25T21:23:28.623Z,3.22
2023-05-25T21:25:56.529Z,3.33
2023-05-25T21:28:24.670Z,7.00
2023-05-25T21:30:52.713Z,13.90
2023-05-25T21:33:23.131Z,3.55
2023-05-25T21:35:51.067Z,3.45
2023-05-25T21:38:19.796Z,3.22
2023-05-25T21:40:47.863Z,3.50
2023-05-25T21:43:15.793Z,3.60
2023-05-25T21:45:43.937Z,3.50
2023-05-25T21:48:12.184Z,3.97
2023-05-25T21:50:41.721Z,3.47
2023-05-25T21:53:09.695Z,3.67
2023-05-25T21:55:37.667Z,3.70
2023-05-25T21:58:08.917Z,3.88
2023-05-25T22:00:36.978Z,3.80
2023-05-25T22:03:05.135Z,3.50
2023-05-25T22:05:34.648Z,3.67
2023-05-25T22:08:04.176Z,3.72
2023-05-25T22:10:32.468Z,3.58
2023-05-25T22:13:00.369Z,3.83
2023-05-25T22:15:28.324Z,4.13
2023-05-25T22:17:57.159Z,3.58
2023-05-25T22:20:25.187Z,4.07
2023-05-25T22:22:53.143Z,4.10
2023-05-25T22:25:22.647Z,4.55
2023-05-25T22:27:50.618Z,4.20
2023-05-25T22:30:18.521Z,4.10
2023-05-25T22:32:46.645Z,4.60
2023-05-25T22:35:15.788Z,3.92
2023-05-25T22:37:43.760Z,4.13
2023-05-25T22:40:15.380Z,4.35
2023-05-25T22:42:49.857Z,3.88
2023-05-25T22:45:18.361Z,4.47
2023-05-25T22:47:46.330Z,4.13
2023-05-25T22:50:14.447Z,4.40
2023-05-25T22:52:42.962Z,4.82
2023-05-25T22:55:11.386Z,4.07
2023-05-25T22:57:39.549Z,3.60
2023-05-25T23:00:10.033Z,4.13
2023-05-25T23:02:38.068Z,3.53
2023-05-25T23:05:06.722Z,3.30
2023-05-25T23:07:34.745Z,3.00
2023-05-25T23:10:02.747Z,3.60
2023-05-25T23:12:30.743Z,3.35
2023-05-25T23:14:59.466Z,3.42
2023-05-25T23:17:28.841Z,2.70
2023-05-25T23:19:56.751Z,2.70
2023-05-25T23:22:24.775Z,2.70
2023-05-25T23:24:52.696Z,2.20
2023-05-25T23:27:20.878Z,2.50
2023-05-25T23:29:48.800Z,2.10
2023-05-25T23:32:16.766Z,2.30
2023-05-25T23:34:46.178Z,3.17
2023-05-25T23:37:14.229Z,2.70
2023-05-25T23:39:42.127Z,2.78
2023-05-25T23:42:10.121Z,2.90
2023-05-25T23:44:38.040Z,3.00
2023-05-25T23:47:06.392Z,3.00
2023-05-25T23:49:34.400Z,3.00
2023-05-25T23:52:04.026Z,3.13
2023-05-25T23:54:31.991Z,3.20
2023-05-25T23:56:59.894Z,2.90
2023-05-25T23:59:27.858Z,3.15
